Terminal Aerodrome Forecast
Issued by NWS

Home | Current Version | Previous Version | Text Only | Print | Product List | Glossary On
Versions: 1 2 3 4 5 6 7 8 9 10 11 12 13 14 15 16 17
000
FTUS43 KDVN 240711 AAA
TAFBRL
TAF AMD
KBRL 240711Z 2407/2506 18011KT P6SM VCSH OVC008
      TEMPO 2408/2412 3SM -SHRA BKN015 OVC030
     FM241300 18009KT 6SM HZ BKN012 OVC025
     FM241900 20007KT P6SM VCTS SCT025CB BKN035=

USA.gov is the U.S. government's official web portal to all federal, state and local government web resources and services.